ESMK/KID METAR and TAF weather

Enter ICAO airport designator
Station Type Date Time Source
ESMK METAR 2020/07/06 08:20 UTC NOAA

ESMK 060820Z 23015KT 9999 FEW034 SCT048 BKN068 15/12 Q1000 RERA


Station Type Date Time Source
ESMK Decoded METAR 2020/07/06 08:20 UTC NOAA

Kristianstad / Everod, Sweden (ESMK) 55-55N 014-05E
Jul 06, 2020 - 04:20 AM EDT / 2020.07.06 0820 UTC
Wind: from the SW (230 degrees) at 17 MPH (15 KT):0
Visibility: greater than 7 mile(s):0
Sky conditions: mostly cloudy
Temperature: 59 F (15 C)
Dew Point: 53 F (12 C)
Relative Humidity: 82%
Pressure (altimeter): 29.53 in. Hg (1000 hPa)
ob: ESMK 060820Z 23015KT 9999 FEW034 SCT048 BKN068 15/12 Q1000 RERA
cycle: 8

Station Type Date Time Source
ESMK TAF 2015/03/18 12:33 UTC NOAA

TAF ESMK 181130Z 1812/1824 13012KT CAVOK

Example: see airport list